createdAt,value
2022-10-10T00:01:41.098Z,0.63
2022-10-10T00:04:09.201Z,2.22
2022-10-10T00:06:38.600Z,1.60
2022-10-10T00:09:07.389Z,1.65
2022-10-10T00:11:36.788Z,0.65
2022-10-10T00:14:06.255Z,0.60
2022-10-10T00:16:34.454Z,2.13
2022-10-10T00:19:02.449Z,1.55
2022-10-10T00:21:30.437Z,1.33
2022-10-10T00:24:00.738Z,0.50
2022-10-10T00:26:30.870Z,0.90
2022-10-10T00:28:59.020Z,2.42
2022-10-10T00:31:27.241Z,1.63
2022-10-10T00:33:55.329Z,0.98
2022-10-10T00:36:23.359Z,0.82
2022-10-10T00:38:51.309Z,1.08
2022-10-10T00:41:22.272Z,0.98
2022-10-10T00:44:05.925Z,1.30
2022-10-10T00:46:34.098Z,1.70
2022-10-10T00:49:04.077Z,0.80
2022-10-10T00:51:32.357Z,4.13
2022-10-10T00:54:05.339Z,1.88
2022-10-10T00:56:39.230Z,0.63
2022-10-10T00:59:13.215Z,1.42
2022-10-10T01:01:42.151Z,1.17
2022-10-10T01:04:32.908Z,1.23
2022-10-10T01:07:02.892Z,1.25
2022-10-10T01:09:31.333Z,1.88
2022-10-10T01:12:08.920Z,1.25
2022-10-10T01:14:47.256Z,0.55
2022-10-10T01:17:24.217Z,1.77
2022-10-10T01:20:20.199Z,1.23
2022-10-10T01:23:04.078Z,2.35
2022-10-10T01:25:37.835Z,1.27
2022-10-10T01:28:21.373Z,0.93
2022-10-10T01:30:50.481Z,1.35
2022-10-10T01:33:24.002Z,0.98
2022-10-10T01:35:56.127Z,1.42
2022-10-10T01:38:31.950Z,0.73
2022-10-10T01:41:07.893Z,0.50
2022-10-10T01:43:56.317Z,1.20
2022-10-10T01:46:39.085Z,0.93
2022-10-10T01:49:07.162Z,0.77
2022-10-10T01:51:51.386Z,0.80
2022-10-10T01:54:34.766Z,1.00
2022-10-10T01:57:16.279Z,1.25
2022-10-10T01:59:59.036Z,0.52
2022-10-10T02:02:37.737Z,2.25
2022-10-10T02:05:09.992Z,1.52
2022-10-10T02:07:45.022Z,0.98
2022-10-10T02:10:16.940Z,1.45
2022-10-10T02:12:46.104Z,1.85
2022-10-10T02:15:18.309Z,0.82
2022-10-10T02:17:49.279Z,0.70
2022-10-10T02:20:21.999Z,2.30
2022-10-10T02:22:51.832Z,2.15
2022-10-10T02:25:25.461Z,0.90
2022-10-10T02:28:04.855Z,1.70
2022-10-10T02:30:37.585Z,1.20
2022-10-10T02:33:07.949Z,6.30
2022-10-10T02:35:41.554Z,1.55
2022-10-10T02:38:12.553Z,2.85
2022-10-10T02:40:42.730Z,1.77
2022-10-10T02:43:12.139Z,1.90
2022-10-10T02:45:42.657Z,1.15
2022-10-10T02:48:10.849Z,0.98
2022-10-10T02:50:39.256Z,1.02
2022-10-10T02:53:07.238Z,0.80
2022-10-10T02:55:35.232Z,2.33
2022-10-10T02:58:03.277Z,1.03
2022-10-10T03:00:31.248Z,1.75
2022-10-10T03:03:00.620Z,4.10
2022-10-10T03:05:28.691Z,1.25
2022-10-10T03:07:56.697Z,2.15
2022-10-10T03:10:24.693Z,0.60
2022-10-10T03:12:52.906Z,1.00
2022-10-10T03:15:21.094Z,1.08
2022-10-10T03:17:49.165Z,1.95
2022-10-10T03:20:18.719Z,1.05
2022-10-10T03:22:46.773Z,1.90
2022-10-10T03:25:14.737Z,0.73
2022-10-10T03:27:42.762Z,2.07
2022-10-10T03:30:12.022Z,1.73
2022-10-10T03:32:40.115Z,2.50
2022-10-10T03:35:08.792Z,1.30
2022-10-10T03:37:38.193Z,1.87
2022-10-10T03:40:07.107Z,0.60
2022-10-10T03:42:35.088Z,0.87
2022-10-10T03:45:03.152Z,0.63
2022-10-10T03:47:31.166Z,2.00
2022-10-10T03:49:59.127Z,1.43
2022-10-10T03:52:27.204Z,1.50
2022-10-10T03:54:56.807Z,1.90
2022-10-10T03:57:24.772Z,2.13
2022-10-10T03:59:52.835Z,1.23
2022-10-10T04:02:21.054Z,0.97
2022-10-10T04:04:49.042Z,1.60
2022-10-10T04:07:17.097Z,0.97
2022-10-10T04:09:45.056Z,5.60
2022-10-10T04:12:14.429Z,2.00
2022-10-10T04:14:42.521Z,0.73
2022-10-10T04:17:10.902Z,0.60
2022-10-10T04:19:38.857Z,1.30
2022-10-10T04:22:10.938Z,1.43
2022-10-10T04:24:41.296Z,1.83
2022-10-10T04:27:09.425Z,1.83
2022-10-10T04:29:38.894Z,3.80
2022-10-10T04:32:07.489Z,1.17
2022-10-10T04:34:35.595Z,0.77
2022-10-10T04:37:03.724Z,0.50
2022-10-10T04:39:31.675Z,1.70
2022-10-10T04:41:59.659Z,1.80
2022-10-10T04:44:27.669Z,1.85
2022-10-10T04:46:56.999Z,1.30
2022-10-10T04:49:25.429Z,2.83
2022-10-10T04:51:53.436Z,1.13
2022-10-10T04:54:21.509Z,1.83
2022-10-10T04:56:49.559Z,2.55
2022-10-10T04:59:17.924Z,2.35
2022-10-10T05:01:45.952Z,1.30
2022-10-10T05:04:15.460Z,1.98
2022-10-10T05:06:43.418Z,3.83
2022-10-10T05:09:11.450Z,2.05
2022-10-10T05:11:39.634Z,1.90
2022-10-10T05:14:07.808Z,2.05
2022-10-10T05:16:36.015Z,3.47
2022-10-10T05:19:04.047Z,2.67
2022-10-10T05:21:33.483Z,3.60
2022-10-10T05:24:01.581Z,4.07
2022-10-10T05:26:32.606Z,10.63
2022-10-10T05:29:01.666Z,7.53
2022-10-10T05:31:29.878Z,1.45
2022-10-10T05:33:57.832Z,0.82
2022-10-10T05:36:26.007Z,2.42
2022-10-10T05:38:55.333Z,1.95
2022-10-10T05:41:23.392Z,5.78
2022-10-10T05:43:51.528Z,1.50
2022-10-10T05:46:23.189Z,1.23
2022-10-10T05:48:51.239Z,1.38
2022-10-10T05:51:19.214Z,1.23
2022-10-10T05:53:48.452Z,0.85
2022-10-10T05:56:17.942Z,1.05
2022-10-10T05:58:55.495Z,1.02
2022-10-10T06:01:26.163Z,1.30
2022-10-10T06:03:56.208Z,2.10
2022-10-10T06:06:25.443Z,0.70
2022-10-10T06:08:53.534Z,1.92
2022-10-10T06:11:25.100Z,5.25
2022-10-10T06:13:54.362Z,3.45
2022-10-10T06:16:23.060Z,1.17
2022-10-10T06:18:51.336Z,2.58
2022-10-10T06:21:20.250Z,0.90
2022-10-10T06:23:48.312Z,1.63
2022-10-10T06:26:16.401Z,1.10
2022-10-10T06:28:45.887Z,1.40
2022-10-10T06:31:15.361Z,1.95
2022-10-10T06:33:45.524Z,2.25
2022-10-10T06:36:15.113Z,2.55
2022-10-10T06:38:45.282Z,1.83
2022-10-10T06:41:14.110Z,2.58
2022-10-10T06:43:42.546Z,2.13
2022-10-10T06:46:11.896Z,2.45
2022-10-10T06:48:39.889Z,3.00
2022-10-10T06:51:10.016Z,1.65
2022-10-10T06:53:38.216Z,2.80
2022-10-10T06:56:06.451Z,1.77
2022-10-10T06:58:35.233Z,3.72
2022-10-10T07:01:07.412Z,2.08
2022-10-10T07:03:36.916Z,0.88
2022-10-10T07:06:05.027Z,3.55
2022-10-10T07:08:32.998Z,2.20
2022-10-10T07:11:01.044Z,1.52
2022-10-10T07:13:29.379Z,7.85
2022-10-10T07:15:57.393Z,0.80
2022-10-10T07:18:25.533Z,1.17
2022-10-10T07:20:59.206Z,1.58
2022-10-10T07:23:28.568Z,1.00
2022-10-10T07:26:01.249Z,1.17
2022-10-10T07:28:29.808Z,3.60
2022-10-10T07:31:01.862Z,2.97
2022-10-10T07:33:33.451Z,1.83
2022-10-10T07:36:02.828Z,1.00
2022-10-10T07:38:30.814Z,0.98
2022-10-10T07:40:58.881Z,0.80
2022-10-10T07:43:27.215Z,0.75
2022-10-10T07:45:55.385Z,6.47
2022-10-10T07:48:23.458Z,2.20
2022-10-10T07:50:51.488Z,1.38
2022-10-10T07:53:20.837Z,1.67
2022-10-10T07:55:49.094Z,1.30
2022-10-10T07:58:17.215Z,1.27
2022-10-10T08:00:45.217Z,3.63
2022-10-10T08:03:13.366Z,3.13
2022-10-10T08:05:42.800Z,4.87
2022-10-10T08:08:11.268Z,3.50
2022-10-10T08:10:44.274Z,3.83
2022-10-10T08:13:12.319Z,3.30
2022-10-10T08:15:40.840Z,4.47
2022-10-10T08:18:08.967Z,4.27
2022-10-10T08:20:36.940Z,6.70
2022-10-10T08:23:04.981Z,4.60
2022-10-10T08:25:33.090Z,6.20
2022-10-10T08:28:03.040Z,5.40
2022-10-10T08:30:31.081Z,6.60
2022-10-10T08:32:59.088Z,6.47
2022-10-10T08:35:27.147Z,6.65
2022-10-10T08:37:55.885Z,7.18
2022-10-10T08:40:28.688Z,6.43
2022-10-10T08:43:03.401Z,6.50
2022-10-10T08:45:35.074Z,7.32
2022-10-10T08:48:06.985Z,7.97
2022-10-10T08:50:39.477Z,3.83
2022-10-10T08:53:15.404Z,2.53
2022-10-10T08:55:44.864Z,2.90
2022-10-10T08:58:20.667Z,3.47
2022-10-10T09:00:55.735Z,3.10
2022-10-10T09:03:28.509Z,3.10
2022-10-10T09:06:18.065Z,3.03
2022-10-10T09:08:55.793Z,2.80
2022-10-10T09:11:39.974Z,3.25
2022-10-10T09:14:20.425Z,4.10
2022-10-10T09:16:57.205Z,3.10
2022-10-10T09:19:37.731Z,3.67
2022-10-10T09:22:12.135Z,3.92
2022-10-10T09:24:46.299Z,3.50
2022-10-10T09:27:17.764Z,4.35
2022-10-10T09:29:51.110Z,2.80
2022-10-10T09:32:23.617Z,4.00
2022-10-10T09:34:56.356Z,4.18
2022-10-10T09:37:46.359Z,7.63
2022-10-10T09:40:23.462Z,4.25
2022-10-10T09:42:51.898Z,4.55
2022-10-10T09:45:23.435Z,4.60
2022-10-10T09:47:55.986Z,5.55
2022-10-10T09:50:25.057Z,6.55
2022-10-10T09:52:53.946Z,6.35
2022-10-10T09:55:27.662Z,9.05
2022-10-10T09:57:58.135Z,13.32
2022-10-10T10:00:34.851Z,13.75
2022-10-10T10:03:12.961Z,10.25
2022-10-10T10:05:43.234Z,11.50
2022-10-10T10:08:29.925Z,13.10
2022-10-10T10:10:59.360Z,14.82
2022-10-10T10:13:31.171Z,13.20
2022-10-10T10:16:06.630Z,14.27
2022-10-10T10:18:44.151Z,13.85
2022-10-10T10:21:21.399Z,15.57
2022-10-10T10:23:55.469Z,16.02
2022-10-10T10:26:27.407Z,15.73
2022-10-10T10:28:58.044Z,17.08
2022-10-10T10:31:54.165Z,18.40
2022-10-10T10:35:03.372Z,16.40
2022-10-10T10:37:44.410Z,16.85
2022-10-10T10:40:31.025Z,18.38
2022-10-10T10:43:22.114Z,17.27
2022-10-10T10:46:02.275Z,16.65
2022-10-10T10:48:49.213Z,17.27
2022-10-10T10:51:34.440Z,16.98
2022-10-10T10:54:16.054Z,17.02
2022-10-10T10:56:51.350Z,18.92
2022-10-10T11:00:17.133Z,27.45
2022-10-10T11:02:55.498Z,25.75
2022-10-10T11:05:42.155Z,22.38
2022-10-10T11:08:35.869Z,19.58
2022-10-10T11:11:20.706Z,19.83
2022-10-10T11:13:56.234Z,20.60
2022-10-10T11:19:23.946Z,18.95
2022-10-10T11:21:59.304Z,19.05
2022-10-10T11:24:37.353Z,21.48
2022-10-10T11:27:11.770Z,25.02
2022-10-10T11:29:52.342Z,21.50
2022-10-10T11:32:25.370Z,35.50
2022-10-10T11:35:08.246Z,21.52
2022-10-10T11:37:42.389Z,21.60
2022-10-10T11:40:33.428Z,23.52
2022-10-10T11:43:05.994Z,22.90
2022-10-10T11:45:47.203Z,20.38
2022-10-10T11:48:30.685Z,23.17
2022-10-10T11:51:02.577Z,22.92
2022-10-10T11:53:37.382Z,21.33
2022-10-10T11:56:16.373Z,22.00
2022-10-10T11:58:48.973Z,20.90
2022-10-10T12:01:23.600Z,22.52
2022-10-10T12:03:52.419Z,20.65
2022-10-10T12:06:25.634Z,21.10
2022-10-10T12:09:00.753Z,20.65
2022-10-10T12:11:37.035Z,23.83
2022-10-10T12:14:09.257Z,21.67
2022-10-10T12:16:39.229Z,23.67
2022-10-10T12:19:14.905Z,21.35
2022-10-10T12:21:58.577Z,22.58
2022-10-10T12:24:27.819Z,22.27
2022-10-10T12:27:29.528Z,22.77
2022-10-10T12:30:19.338Z,22.27
2022-10-10T12:32:50.177Z,22.60
2022-10-10T12:35:41.517Z,23.27
2022-10-10T12:38:16.201Z,21.75
2022-10-10T12:41:07.565Z,23.55
2022-10-10T12:43:42.271Z,22.90
2022-10-10T12:46:23.388Z,21.90
2022-10-10T12:49:16.966Z,23.33
2022-10-10T12:51:46.639Z,24.48
2022-10-10T12:54:25.533Z,24.58
2022-10-10T12:57:02.869Z,21.83
2022-10-10T12:59:36.021Z,22.75
2022-10-10T13:02:08.188Z,24.58
2022-10-10T13:04:36.191Z,24.05
2022-10-10T13:07:05.666Z,23.60
2022-10-10T13:09:36.087Z,24.60
2022-10-10T13:12:06.446Z,25.98
2022-10-10T13:14:43.516Z,22.92
2022-10-10T13:17:23.558Z,24.83
2022-10-10T13:19:52.415Z,26.95
2022-10-10T13:22:21.217Z,22.55
2022-10-10T13:24:50.288Z,24.23
2022-10-10T13:27:21.129Z,25.83
2022-10-10T13:29:52.936Z,34.95
2022-10-10T13:32:23.831Z,32.05
2022-10-10T13:34:55.068Z,23.55
2022-10-10T13:37:24.211Z,24.23
2022-10-10T13:39:53.816Z,20.70
2022-10-10T13:42:30.239Z,20.83
2022-10-10T13:45:00.404Z,21.00
2022-10-10T13:47:47.706Z,20.88
2022-10-10T13:50:26.229Z,22.17
2022-10-10T13:53:28.375Z,22.10
2022-10-10T13:56:05.150Z,21.48
2022-10-10T13:58:39.711Z,21.30
2022-10-10T14:01:22.598Z,21.63
2022-10-10T14:03:52.902Z,20.77
2022-10-10T14:06:22.595Z,28.45
2022-10-10T14:08:51.538Z,23.35
2022-10-10T14:11:21.731Z,20.70
2022-10-10T14:13:54.179Z,20.95
2022-10-10T14:16:26.332Z,20.55
2022-10-10T14:18:54.668Z,18.42
2022-10-10T14:21:23.010Z,23.67
2022-10-10T14:23:51.017Z,22.50
2022-10-10T14:26:20.858Z,18.23
2022-10-10T14:28:49.486Z,21.23
2022-10-10T14:31:18.191Z,20.67
2022-10-10T14:33:47.584Z,19.58
2022-10-10T14:36:15.606Z,21.38
2022-10-10T14:38:43.578Z,16.70
2022-10-10T14:41:14.051Z,19.38
2022-10-10T14:43:45.735Z,19.63
2022-10-10T14:46:18.919Z,18.50
2022-10-10T14:48:48.309Z,20.30
2022-10-10T14:51:34.398Z,19.52
2022-10-10T14:54:10.636Z,18.27
2022-10-10T14:57:08.427Z,20.42
2022-10-10T14:59:47.260Z,19.98
2022-10-10T15:02:16.866Z,19.02
2022-10-10T15:04:46.371Z,19.45
2022-10-10T15:07:15.389Z,19.70
2022-10-10T15:10:19.159Z,18.73
2022-10-10T15:12:34.116Z,22.35
2022-10-10T15:15:02.428Z,20.25
2022-10-10T15:17:33.702Z,26.27
2022-10-10T15:20:03.803Z,52.92
2022-10-10T15:22:32.080Z,19.85
2022-10-10T15:25:00.524Z,18.60
2022-10-10T15:27:29.121Z,18.35
2022-10-10T15:29:57.176Z,20.25
2022-10-10T15:32:25.384Z,19.23
2022-10-10T15:34:53.999Z,20.40
2022-10-10T15:37:26.023Z,19.75
2022-10-10T15:39:54.122Z,19.92
2022-10-10T15:42:23.414Z,19.08
2022-10-10T15:44:52.524Z,19.55
2022-10-10T15:47:21.214Z,19.45
2022-10-10T15:49:49.795Z,20.38
2022-10-10T15:52:18.358Z,27.98
2022-10-10T15:54:49.661Z,18.73
2022-10-10T15:57:19.101Z,22.77
2022-10-10T15:59:47.712Z,18.25
2022-10-10T16:02:16.248Z,19.48
2022-10-10T16:04:45.114Z,16.70
2022-10-10T16:07:28.372Z,16.65
2022-10-10T16:10:01.213Z,17.45
2022-10-10T16:12:29.476Z,30.83
2022-10-10T16:14:57.551Z,16.70
2022-10-10T16:17:25.593Z,14.27
2022-10-10T16:19:53.548Z,14.82
2022-10-10T16:22:21.608Z,15.38
2022-10-10T16:25:10.135Z,15.38
2022-10-10T16:27:39.670Z,18.33
2022-10-10T16:30:08.903Z,13.85
2022-10-10T16:32:42.050Z,13.00
2022-10-10T16:35:11.841Z,15.43
2022-10-10T16:37:40.202Z,13.57
2022-10-10T16:40:09.061Z,14.32
2022-10-10T16:42:37.113Z,11.60
2022-10-10T16:45:07.680Z,12.90
2022-10-10T16:47:36.007Z,11.00
2022-10-10T16:50:06.111Z,10.68
2022-10-10T16:52:38.156Z,10.10
2022-10-10T16:55:07.851Z,10.02
2022-10-10T16:57:36.524Z,9.55
2022-10-10T17:00:07.521Z,10.43
2022-10-10T17:02:35.739Z,11.38
2022-10-10T17:05:03.826Z,10.45
2022-10-10T17:07:31.819Z,9.10
2022-10-10T17:09:59.801Z,7.57
2022-10-10T17:12:27.812Z,9.50
2022-10-10T17:14:55.812Z,7.45
2022-10-10T17:17:25.242Z,6.50
2022-10-10T17:19:53.241Z,6.28
2022-10-10T17:22:21.292Z,6.50
2022-10-10T17:24:49.402Z,4.35
2022-10-10T17:27:17.474Z,5.15
2022-10-10T17:29:45.463Z,5.60
2022-10-10T17:32:15.455Z,5.55
2022-10-10T17:34:44.891Z,6.03
2022-10-10T17:37:13.014Z,5.22
2022-10-10T17:39:41.030Z,5.63
2022-10-10T17:42:09.117Z,4.82
2022-10-10T17:44:43.286Z,5.00
2022-10-10T17:47:11.821Z,4.45
2022-10-10T17:49:44.947Z,3.67
2022-10-10T17:52:18.827Z,4.15
2022-10-10T17:54:49.362Z,3.13
2022-10-10T17:57:17.482Z,3.25
2022-10-10T17:59:45.489Z,3.30
2022-10-10T18:02:16.245Z,3.65
2022-10-10T18:04:44.330Z,3.42
2022-10-10T18:07:14.493Z,3.67
2022-10-10T18:09:42.741Z,8.43
2022-10-10T18:12:12.648Z,3.65
2022-10-10T18:14:42.591Z,4.05
2022-10-10T18:17:13.892Z,2.80
2022-10-10T18:19:41.929Z,2.67
2022-10-10T18:22:09.959Z,2.22
2022-10-10T18:24:39.663Z,3.65
2022-10-10T18:27:07.725Z,3.38
2022-10-10T18:29:36.116Z,3.15
2022-10-10T18:32:04.165Z,1.92
2022-10-10T18:34:32.267Z,2.95
2022-10-10T18:37:03.096Z,2.42
2022-10-10T18:39:33.346Z,2.33
2022-10-10T18:42:02.973Z,2.58
2022-10-10T18:44:31.041Z,1.70
2022-10-10T18:47:01.726Z,2.95
2022-10-10T18:49:29.780Z,7.57
2022-10-10T18:51:57.775Z,5.20
2022-10-10T18:54:30.363Z,1.98
2022-10-10T18:57:00.299Z,2.38
2022-10-10T18:59:32.090Z,1.67
2022-10-10T19:02:03.050Z,2.83
2022-10-10T19:04:31.360Z,1.60
2022-10-10T19:06:59.950Z,3.80
2022-10-10T19:09:27.940Z,1.52
2022-10-10T19:11:57.604Z,2.08
2022-10-10T19:14:25.675Z,1.95
2022-10-10T19:16:55.001Z,3.58
2022-10-10T19:19:23.837Z,2.65
2022-10-10T19:21:52.389Z,2.45
2022-10-10T19:24:22.413Z,1.55
2022-10-10T19:26:53.415Z,2.78
2022-10-10T19:29:22.088Z,2.05
2022-10-10T19:31:50.217Z,1.85
2022-10-10T19:34:19.648Z,3.55
2022-10-10T19:36:47.806Z,2.40
2022-10-10T19:39:15.820Z,2.00
2022-10-10T19:41:44.033Z,1.63
2022-10-10T19:44:12.115Z,2.97
2022-10-10T19:46:40.123Z,1.55
2022-10-10T19:49:08.088Z,2.38
2022-10-10T19:51:37.497Z,1.63
2022-10-10T19:54:05.671Z,5.43
2022-10-10T19:56:33.743Z,1.05
2022-10-10T19:59:04.455Z,2.63
2022-10-10T20:01:32.942Z,1.67
2022-10-10T20:04:01.296Z,0.73
2022-10-10T20:06:29.635Z,2.47
2022-10-10T20:08:58.989Z,12.85
2022-10-10T20:11:27.320Z,3.72
2022-10-10T20:13:55.977Z,2.22
2022-10-10T20:16:25.378Z,1.45
2022-10-10T20:18:54.390Z,11.32
2022-10-10T20:21:29.210Z,0.93
2022-10-10T20:23:59.510Z,9.80
2022-10-10T20:26:28.300Z,1.67
2022-10-10T20:28:57.704Z,2.00
2022-10-10T20:31:31.221Z,4.55
2022-10-10T20:34:01.710Z,2.17
2022-10-10T20:36:30.859Z,2.42
2022-10-10T20:39:02.086Z,5.78
2022-10-10T20:41:32.650Z,2.65
2022-10-10T20:44:02.625Z,2.17
2022-10-10T20:46:33.397Z,3.95
2022-10-10T20:49:02.773Z,1.35
2022-10-10T20:51:31.073Z,2.60
2022-10-10T20:54:02.325Z,1.50
2022-10-10T20:56:31.969Z,5.10
2022-10-10T20:59:00.726Z,5.00
2022-10-10T21:01:30.447Z,4.15
2022-10-10T21:03:59.752Z,7.18
2022-10-10T21:06:29.765Z,0.80
2022-10-10T21:08:59.844Z,2.00
2022-10-10T21:11:29.301Z,3.53
2022-10-10T21:13:59.189Z,2.17
2022-10-10T21:16:29.573Z,1.63
2022-10-10T21:18:58.746Z,5.35
2022-10-10T21:21:28.294Z,1.45
2022-10-10T21:23:56.991Z,2.75
2022-10-10T21:26:26.972Z,2.97
2022-10-10T21:28:57.315Z,1.58
2022-10-10T21:31:27.551Z,3.83
2022-10-10T21:33:56.312Z,9.15
2022-10-10T21:36:26.589Z,1.65
2022-10-10T21:38:55.994Z,4.97
2022-10-10T21:41:24.565Z,1.67
2022-10-10T21:43:54.871Z,2.40
2022-10-10T21:46:28.618Z,1.45
2022-10-10T21:48:59.235Z,1.15
2022-10-10T21:51:27.557Z,1.95
2022-10-10T21:53:57.535Z,1.80
2022-10-10T21:56:26.322Z,2.05
2022-10-10T21:59:00.188Z,2.92
2022-10-10T22:01:32.841Z,1.73
2022-10-10T22:04:01.582Z,2.13
2022-10-10T22:06:30.046Z,1.45
2022-10-10T22:08:59.209Z,1.77
2022-10-10T22:11:29.122Z,1.95
2022-10-10T22:13:57.658Z,1.50
2022-10-10T22:16:25.867Z,1.65
2022-10-10T22:18:56.091Z,1.65
2022-10-10T22:21:30.452Z,39.63
2022-10-10T22:23:59.568Z,0.90
2022-10-10T22:26:27.613Z,3.42
2022-10-10T22:28:55.648Z,2.40
2022-10-10T22:31:23.737Z,28.48
2022-10-10T22:33:51.821Z,2.70
2022-10-10T22:36:21.176Z,7.10
2022-10-10T22:38:49.145Z,1.05
2022-10-10T22:41:17.104Z,1.63
2022-10-10T22:43:45.248Z,3.65
2022-10-10T22:46:13.244Z,2.88
2022-10-10T22:48:41.235Z,1.95
2022-10-10T22:51:12.615Z,7.97
2022-10-10T22:53:43.683Z,0.95
2022-10-10T22:56:13.640Z,2.35
2022-10-10T22:58:41.795Z,2.58
2022-10-10T23:01:12.525Z,4.18
2022-10-10T23:03:40.680Z,1.73
2022-10-10T23:06:09.478Z,2.42
2022-10-10T23:08:38.088Z,2.15
2022-10-10T23:11:07.669Z,1.38
2022-10-10T23:13:35.669Z,7.28
2022-10-10T23:16:04.258Z,1.35
2022-10-10T23:18:32.532Z,1.08
2022-10-10T23:21:00.704Z,1.25
2022-10-10T23:23:28.931Z,2.25
2022-10-10T23:25:56.956Z,1.02
2022-10-10T23:28:26.354Z,3.17
2022-10-10T23:30:54.386Z,1.90
2022-10-10T23:33:22.415Z,2.05
2022-10-10T23:35:58.492Z,1.27
2022-10-10T23:38:26.600Z,1.52
2022-10-10T23:40:55.150Z,3.65
2022-10-10T23:43:23.344Z,2.28
2022-10-10T23:45:52.714Z,1.58
2022-10-10T23:48:21.262Z,2.45
2022-10-10T23:50:49.452Z,3.00
2022-10-10T23:53:17.609Z,3.20
2022-10-10T23:55:47.710Z,2.40
2022-10-10T23:58:15.746Z,1.73
